sensor_id;sensor_type;location;lat;lon;timestamp;temperature;humidity
7163;DHT22;3623;47.098;15.446;2023-07-31T00:00:18;17.20;99.90
7163;DHT22;3623;47.098;15.446;2023-07-31T00:02:45;17.10;99.90
7163;DHT22;3623;47.098;15.446;2023-07-31T00:05:13;17.00;99.90
7163;DHT22;3623;47.098;15.446;2023-07-31T00:07:41;16.90;99.90
7163;DHT22;3623;47.098;15.446;2023-07-31T00:10:10;16.90;99.90
7163;DHT22;3623;47.098;15.446;2023-07-31T00:12:38;16.90;99.90
7163;DHT22;3623;47.098;15.446;2023-07-31T00:15:06;16.90;99.90
7163;DHT22;3623;47.098;15.446;2023-07-31T00:17:34;16.90;99.90
7163;DHT22;3623;47.098;15.446;2023-07-31T00:20:01;16.80;99.90
7163;DHT22;3623;47.098;15.446;2023-07-31T00:22:28;16.80;99.90
7163;DHT22;3623;47.098;15.446;2023-07-31T00:24:56;16.70;99.90
7163;DHT22;3623;47.098;15.446;2023-07-31T00:27:24;16.80;99.90
7163;DHT22;3623;47.098;15.446;2023-07-31T00:29:51;16.80;99.90
7163;DHT22;3623;47.098;15.446;2023-07-31T00:32:18;16.80;99.90
7163;DHT22;3623;47.098;15.446;2023-07-31T00:34:46;16.70;99.90
7163;DHT22;3623;47.098;15.446;2023-07-31T00:37:13;16.60;99.90
7163;DHT22;3623;47.098;15.446;2023-07-31T00:39:41;16.50;99.90
7163;DHT22;3623;47.098;15.446;2023-07-31T00:42:08;16.50;99.90
7163;DHT22;3623;47.098;15.446;2023-07-31T00:44:36;16.40;99.90
7163;DHT22;3623;47.098;15.446;2023-07-31T00:47:04;16.60;99.90
7163;DHT22;3623;47.098;15.446;2023-07-31T00:49:31;16.40;99.90
7163;DHT22;3623;47.098;15.446;2023-07-31T00:51:59;16.30;99.90
7163;DHT22;3623;47.098;15.446;2023-07-31T00:54:28;16.30;99.90
7163;DHT22;3623;47.098;15.446;2023-07-31T00:56:55;16.30;99.90
7163;DHT22;3623;47.098;15.446;2023-07-31T00:59:23;16.30;99.90
7163;DHT22;3623;47.098;15.446;2023-07-31T01:01:52;16.30;99.90
7163;DHT22;3623;47.098;15.446;2023-07-31T01:04:20;16.30;99.90
7163;DHT22;3623;47.098;15.446;2023-07-31T01:06:52;16.30;99.90
7163;DHT22;3623;47.098;15.446;2023-07-31T01:09:28;16.50;99.90
7163;DHT22;3623;47.098;15.446;2023-07-31T01:12:00;16.40;99.90
7163;DHT22;3623;47.098;15.446;2023-07-31T01:14:27;16.50;99.90
7163;DHT22;3623;47.098;15.446;2023-07-31T01:16:56;16.40;99.90
7163;DHT22;3623;47.098;15.446;2023-07-31T01:19:24;16.30;99.90
7163;DHT22;3623;47.098;15.446;2023-07-31T01:22:21;16.10;99.90
7163;DHT22;3623;47.098;15.446;2023-07-31T01:24:57;16.00;99.90
7163;DHT22;3623;47.098;15.446;2023-07-31T01:27:30;15.90;99.90
7163;DHT22;3623;47.098;15.446;2023-07-31T01:30:05;15.90;99.90
7163;DHT22;3623;47.098;15.446;2023-07-31T01:32:38;16.00;99.90
7163;DHT22;3623;47.098;15.446;2023-07-31T01:35:07;16.10;99.90
7163;DHT22;3623;47.098;15.446;2023-07-31T01:37:35;16.10;99.90
7163;DHT22;3623;47.098;15.446;2023-07-31T01:40:02;16.20;99.90
7163;DHT22;3623;47.098;15.446;2023-07-31T01:42:31;16.20;99.90
7163;DHT22;3623;47.098;15.446;2023-07-31T01:44:58;16.20;99.90
7163;DHT22;3623;47.098;15.446;2023-07-31T01:47:25;16.10;99.90
7163;DHT22;3623;47.098;15.446;2023-07-31T01:49:52;16.10;99.90
7163;DHT22;3623;47.098;15.446;2023-07-31T01:52:19;16.00;99.90
7163;DHT22;3623;47.098;15.446;2023-07-31T01:54:46;16.10;99.90
7163;DHT22;3623;47.098;15.446;2023-07-31T01:57:14;16.30;99.90
7163;DHT22;3623;47.098;15.446;2023-07-31T01:59:42;16.00;99.90
7163;DHT22;3623;47.098;15.446;2023-07-31T02:02:09;15.90;99.90
7163;DHT22;3623;47.098;15.446;2023-07-31T02:04:36;15.90;99.90
7163;DHT22;3623;47.098;15.446;2023-07-31T02:07:05;15.90;99.90
7163;DHT22;3623;47.098;15.446;2023-07-31T02:09:32;15.70;99.90
7163;DHT22;3623;47.098;15.446;2023-07-31T02:11:59;15.70;99.90
7163;DHT22;3623;47.098;15.446;2023-07-31T02:14:27;15.80;99.90
7163;DHT22;3623;47.098;15.446;2023-07-31T02:16:55;15.80;99.90
7163;DHT22;3623;47.098;15.446;2023-07-31T02:19:22;15.90;99.90
7163;DHT22;3623;47.098;15.446;2023-07-31T02:21:49;15.70;99.90
7163;DHT22;3623;47.098;15.446;2023-07-31T02:24:17;15.70;99.90
7163;DHT22;3623;47.098;15.446;2023-07-31T02:26:44;15.60;99.90
7163;DHT22;3623;47.098;15.446;2023-07-31T02:29:11;15.60;99.90
7163;DHT22;3623;47.098;15.446;2023-07-31T02:31:38;15.50;99.90
7163;DHT22;3623;47.098;15.446;2023-07-31T02:34:06;15.60;99.90
7163;DHT22;3623;47.098;15.446;2023-07-31T02:36:33;15.60;99.90
7163;DHT22;3623;47.098;15.446;2023-07-31T02:39:01;15.70;99.90
7163;DHT22;3623;47.098;15.446;2023-07-31T02:41:28;15.70;99.90
7163;DHT22;3623;47.098;15.446;2023-07-31T02:43:55;15.70;99.90
7163;DHT22;3623;47.098;15.446;2023-07-31T02:46:22;15.70;99.90
7163;DHT22;3623;47.098;15.446;2023-07-31T02:48:50;15.60;99.90
7163;DHT22;3623;47.098;15.446;2023-07-31T02:51:19;15.60;99.90
7163;DHT22;3623;47.098;15.446;2023-07-31T02:53:47;15.60;99.90
7163;DHT22;3623;47.098;15.446;2023-07-31T02:56:15;15.60;99.90
7163;DHT22;3623;47.098;15.446;2023-07-31T02:58:42;15.60;99.90
7163;DHT22;3623;47.098;15.446;2023-07-31T03:01:09;15.70;99.90
7163;DHT22;3623;47.098;15.446;2023-07-31T03:03:36;15.70;99.90
7163;DHT22;3623;47.098;15.446;2023-07-31T03:06:04;15.80;99.90
7163;DHT22;3623;47.098;15.446;2023-07-31T03:08:33;15.80;99.90
7163;DHT22;3623;47.098;15.446;2023-07-31T03:11:00;15.80;99.90
7163;DHT22;3623;47.098;15.446;2023-07-31T03:13:27;15.80;99.90
7163;DHT22;3623;47.098;15.446;2023-07-31T03:15:54;15.70;99.90
7163;DHT22;3623;47.098;15.446;2023-07-31T03:18:21;15.70;99.90
7163;DHT22;3623;47.098;15.446;2023-07-31T03:20:49;15.70;99.90
7163;DHT22;3623;47.098;15.446;2023-07-31T03:23:16;15.60;99.90
7163;DHT22;3623;47.098;15.446;2023-07-31T03:25:57;15.60;99.90
7163;DHT22;3623;47.098;15.446;2023-07-31T03:28:24;15.60;99.90
7163;DHT22;3623;47.098;15.446;2023-07-31T03:30:51;15.50;99.90
7163;DHT22;3623;47.098;15.446;2023-07-31T03:33:19;15.50;99.90
7163;DHT22;3623;47.098;15.446;2023-07-31T03:35:46;15.50;99.90
7163;DHT22;3623;47.098;15.446;2023-07-31T03:38:13;15.50;99.90
7163;DHT22;3623;47.098;15.446;2023-07-31T03:40:40;15.50;99.90
7163;DHT22;3623;47.098;15.446;2023-07-31T03:43:09;15.50;99.90
7163;DHT22;3623;47.098;15.446;2023-07-31T03:45:36;15.50;99.90
7163;DHT22;3623;47.098;15.446;2023-07-31T03:48:04;15.50;99.90
7163;DHT22;3623;47.098;15.446;2023-07-31T03:50:31;15.40;99.90
7163;DHT22;3623;47.098;15.446;2023-07-31T03:52:58;15.40;99.90
7163;DHT22;3623;47.098;15.446;2023-07-31T03:55:25;15.30;99.90
7163;DHT22;3623;47.098;15.446;2023-07-31T03:57:53;15.30;99.90
7163;DHT22;3623;47.098;15.446;2023-07-31T04:00:21;15.20;99.90
7163;DHT22;3623;47.098;15.446;2023-07-31T04:02:49;15.20;99.90
7163;DHT22;3623;47.098;15.446;2023-07-31T04:05:16;15.20;99.90
7163;DHT22;3623;47.098;15.446;2023-07-31T04:07:43;15.20;99.90
7163;DHT22;3623;47.098;15.446;2023-07-31T04:10:10;15.30;99.90
7163;DHT22;3623;47.098;15.446;2023-07-31T04:12:37;15.40;99.90
7163;DHT22;3623;47.098;15.446;2023-07-31T04:15:05;15.40;99.90
7163;DHT22;3623;47.098;15.446;2023-07-31T04:17:34;15.40;99.90
7163;DHT22;3623;47.098;15.446;2023-07-31T04:20:01;15.30;99.90
7163;DHT22;3623;47.098;15.446;2023-07-31T04:22:28;15.30;99.90
7163;DHT22;3623;47.098;15.446;2023-07-31T04:24:56;15.40;99.90
7163;DHT22;3623;47.098;15.446;2023-07-31T04:27:23;15.40;99.90
7163;DHT22;3623;47.098;15.446;2023-07-31T04:29:50;15.40;99.90
7163;DHT22;3623;47.098;15.446;2023-07-31T04:32:17;15.40;99.90
7163;DHT22;3623;47.098;15.446;2023-07-31T04:34:47;15.40;99.90
7163;DHT22;3623;47.098;15.446;2023-07-31T04:37:14;15.40;99.90
7163;DHT22;3623;47.098;15.446;2023-07-31T04:39:41;15.40;99.90
7163;DHT22;3623;47.098;15.446;2023-07-31T04:42:08;15.50;99.90
7163;DHT22;3623;47.098;15.446;2023-07-31T04:44:36;15.50;99.90
7163;DHT22;3623;47.098;15.446;2023-07-31T04:47:03;15.60;99.90
7163;DHT22;3623;47.098;15.446;2023-07-31T04:49:31;15.60;99.90
7163;DHT22;3623;47.098;15.446;2023-07-31T04:52:00;15.60;99.90
7163;DHT22;3623;47.098;15.446;2023-07-31T04:54:27;15.60;99.90
7163;DHT22;3623;47.098;15.446;2023-07-31T04:56:54;15.60;99.90
7163;DHT22;3623;47.098;15.446;2023-07-31T04:59:21;15.70;99.90
7163;DHT22;3623;47.098;15.446;2023-07-31T05:01:48;15.60;99.90
7163;DHT22;3623;47.098;15.446;2023-07-31T05:04:16;15.60;99.90
7163;DHT22;3623;47.098;15.446;2023-07-31T05:06:43;15.70;99.90
7163;DHT22;3623;47.098;15.446;2023-07-31T05:09:12;15.70;99.90
7163;DHT22;3623;47.098;15.446;2023-07-31T05:11:39;15.80;99.90
7163;DHT22;3623;47.098;15.446;2023-07-31T05:14:08;15.80;99.90
7163;DHT22;3623;47.098;15.446;2023-07-31T05:16:35;15.90;99.90
7163;DHT22;3623;47.098;15.446;2023-07-31T05:19:03;16.00;99.90
7163;DHT22;3623;47.098;15.446;2023-07-31T05:21:30;16.00;99.90
7163;DHT22;3623;47.098;15.446;2023-07-31T05:23:57;16.20;99.90
7163;DHT22;3623;47.098;15.446;2023-07-31T05:26:26;16.30;99.90
7163;DHT22;3623;47.098;15.446;2023-07-31T05:28:53;16.40;99.90
7163;DHT22;3623;47.098;15.446;2023-07-31T05:31:20;16.40;99.90
7163;DHT22;3623;47.098;15.446;2023-07-31T05:33:48;16.40;99.90
7163;DHT22;3623;47.098;15.446;2023-07-31T05:36:16;16.40;99.90
7163;DHT22;3623;47.098;15.446;2023-07-31T05:38:43;16.40;99.90
7163;DHT22;3623;47.098;15.446;2023-07-31T05:41:11;16.40;99.90
7163;DHT22;3623;47.098;15.446;2023-07-31T05:43:40;16.50;99.90
7163;DHT22;3623;47.098;15.446;2023-07-31T05:46:09;16.50;99.90
7163;DHT22;3623;47.098;15.446;2023-07-31T05:48:37;16.60;99.90
7163;DHT22;3623;47.098;15.446;2023-07-31T05:51:04;16.60;99.90
7163;DHT22;3623;47.098;15.446;2023-07-31T05:53:32;16.70;99.90
7163;DHT22;3623;47.098;15.446;2023-07-31T05:56:00;16.70;99.90
7163;DHT22;3623;47.098;15.446;2023-07-31T05:58:27;16.70;99.90
7163;DHT22;3623;47.098;15.446;2023-07-31T06:00:56;16.80;99.90
7163;DHT22;3623;47.098;15.446;2023-07-31T06:03:23;16.90;99.90
7163;DHT22;3623;47.098;15.446;2023-07-31T06:05:50;16.90;99.90
7163;DHT22;3623;47.098;15.446;2023-07-31T06:08:17;17.00;99.90
7163;DHT22;3623;47.098;15.446;2023-07-31T06:10:44;17.10;99.90
7163;DHT22;3623;47.098;15.446;2023-07-31T06:13:11;17.20;99.90
7163;DHT22;3623;47.098;15.446;2023-07-31T06:15:39;17.30;99.90
7163;DHT22;3623;47.098;15.446;2023-07-31T06:18:07;17.40;99.90
7163;DHT22;3623;47.098;15.446;2023-07-31T06:20:34;17.50;99.90
7163;DHT22;3623;47.098;15.446;2023-07-31T06:23:02;17.60;99.90
7163;DHT22;3623;47.098;15.446;2023-07-31T06:25:29;17.80;99.90
7163;DHT22;3623;47.098;15.446;2023-07-31T06:27:56;17.90;99.90
7163;DHT22;3623;47.098;15.446;2023-07-31T06:30:23;18.00;99.90
7163;DHT22;3623;47.098;15.446;2023-07-31T06:32:51;18.00;99.90
7163;DHT22;3623;47.098;15.446;2023-07-31T06:35:19;18.10;99.90
7163;DHT22;3623;47.098;15.446;2023-07-31T06:37:46;18.10;99.90
7163;DHT22;3623;47.098;15.446;2023-07-31T06:40:13;18.20;99.90
7163;DHT22;3623;47.098;15.446;2023-07-31T06:42:40;18.30;99.90
7163;DHT22;3623;47.098;15.446;2023-07-31T06:45:08;18.50;99.90
7163;DHT22;3623;47.098;15.446;2023-07-31T06:47:36;18.50;99.90
7163;DHT22;3623;47.098;15.446;2023-07-31T06:50:04;18.60;99.90
7163;DHT22;3623;47.098;15.446;2023-07-31T06:52:32;18.70;99.90
7163;DHT22;3623;47.098;15.446;2023-07-31T06:55:02;18.80;99.90
7163;DHT22;3623;47.098;15.446;2023-07-31T06:57:30;18.90;99.90
7163;DHT22;3623;47.098;15.446;2023-07-31T06:59:57;19.00;99.90
7163;DHT22;3623;47.098;15.446;2023-07-31T07:02:24;19.10;99.90
7163;DHT22;3623;47.098;15.446;2023-07-31T07:04:52;19.10;99.90
7163;DHT22;3623;47.098;15.446;2023-07-31T07:07:20;19.20;99.90
7163;DHT22;3623;47.098;15.446;2023-07-31T07:09:49;19.30;99.90
7163;DHT22;3623;47.098;15.446;2023-07-31T07:12:16;19.40;99.90
7163;DHT22;3623;47.098;15.446;2023-07-31T07:14:43;19.60;99.90
7163;DHT22;3623;47.098;15.446;2023-07-31T07:17:11;20.20;99.90
7163;DHT22;3623;47.098;15.446;2023-07-31T07:19:40;21.10;99.90
7163;DHT22;3623;47.098;15.446;2023-07-31T07:22:07;21.40;99.90
7163;DHT22;3623;47.098;15.446;2023-07-31T07:24:34;21.40;99.90
7163;DHT22;3623;47.098;15.446;2023-07-31T07:27:03;20.90;99.90
7163;DHT22;3623;47.098;15.446;2023-07-31T07:29:30;21.00;99.90
7163;DHT22;3623;47.098;15.446;2023-07-31T07:31:57;21.20;99.90
7163;DHT22;3623;47.098;15.446;2023-07-31T07:34:25;21.30;99.90
7163;DHT22;3623;47.098;15.446;2023-07-31T07:36:52;21.10;99.90
7163;DHT22;3623;47.098;15.446;2023-07-31T07:39:20;21.10;99.90
7163;DHT22;3623;47.098;15.446;2023-07-31T07:41:47;21.10;99.90
7163;DHT22;3623;47.098;15.446;2023-07-31T07:44:16;21.20;99.90
7163;DHT22;3623;47.098;15.446;2023-07-31T07:46:43;21.70;99.90
7163;DHT22;3623;47.098;15.446;2023-07-31T07:49:10;22.50;99.90
7163;DHT22;3623;47.098;15.446;2023-07-31T07:51:38;22.40;99.90
7163;DHT22;3623;47.098;15.446;2023-07-31T07:54:05;22.30;99.90
7163;DHT22;3623;47.098;15.446;2023-07-31T07:56:33;21.80;99.90
7163;DHT22;3623;47.098;15.446;2023-07-31T07:59:02;21.30;99.90
7163;DHT22;3623;47.098;15.446;2023-07-31T08:01:30;21.10;99.90
7163;DHT22;3623;47.098;15.446;2023-07-31T08:03:58;21.00;99.90
7163;DHT22;3623;47.098;15.446;2023-07-31T08:06:25;21.10;99.90
7163;DHT22;3623;47.098;15.446;2023-07-31T08:08:52;21.30;99.90
7163;DHT22;3623;47.098;15.446;2023-07-31T08:11:19;21.30;99.90
7163;DHT22;3623;47.098;15.446;2023-07-31T08:13:47;21.30;99.90
7163;DHT22;3623;47.098;15.446;2023-07-31T08:16:14;21.40;99.90
7163;DHT22;3623;47.098;15.446;2023-07-31T08:18:43;21.50;99.90
7163;DHT22;3623;47.098;15.446;2023-07-31T08:21:10;21.50;99.90
7163;DHT22;3623;47.098;15.446;2023-07-31T08:23:37;21.50;99.90
7163;DHT22;3623;47.098;15.446;2023-07-31T08:26:04;21.50;99.90
7163;DHT22;3623;47.098;15.446;2023-07-31T08:28:31;21.50;99.90
7163;DHT22;3623;47.098;15.446;2023-07-31T08:30:58;21.40;99.90
7163;DHT22;3623;47.098;15.446;2023-07-31T08:33:26;21.40;99.90
7163;DHT22;3623;47.098;15.446;2023-07-31T08:35:54;21.40;99.90
7163;DHT22;3623;47.098;15.446;2023-07-31T08:38:21;21.60;99.90
7163;DHT22;3623;47.098;15.446;2023-07-31T08:40:51;21.50;99.90
7163;DHT22;3623;47.098;15.446;2023-07-31T08:43:20;21.70;99.90
7163;DHT22;3623;47.098;15.446;2023-07-31T08:45:50;21.80;99.90
7163;DHT22;3623;47.098;15.446;2023-07-31T08:48:17;22.00;99.90
7163;DHT22;3623;47.098;15.446;2023-07-31T08:50:46;22.10;99.90
7163;DHT22;3623;47.098;15.446;2023-07-31T08:53:14;22.20;99.90
7163;DHT22;3623;47.098;15.446;2023-07-31T08:55:43;22.20;99.90
7163;DHT22;3623;47.098;15.446;2023-07-31T08:58:12;22.20;99.90
7163;DHT22;3623;47.098;15.446;2023-07-31T09:00:41;22.20;99.90
7163;DHT22;3623;47.098;15.446;2023-07-31T09:03:13;22.20;99.90
7163;DHT22;3623;47.098;15.446;2023-07-31T09:05:43;22.20;99.90
7163;DHT22;3623;47.098;15.446;2023-07-31T09:08:11;22.40;99.90
7163;DHT22;3623;47.098;15.446;2023-07-31T09:10:42;22.50;99.90
7163;DHT22;3623;47.098;15.446;2023-07-31T09:13:09;22.60;99.90
7163;DHT22;3623;47.098;15.446;2023-07-31T09:15:37;22.60;99.90
7163;DHT22;3623;47.098;15.446;2023-07-31T09:18:05;22.50;99.90
7163;DHT22;3623;47.098;15.446;2023-07-31T09:20:32;22.50;99.90
7163;DHT22;3623;47.098;15.446;2023-07-31T09:23:07;22.40;99.90
7163;DHT22;3623;47.098;15.446;2023-07-31T09:25:35;22.30;99.90
7163;DHT22;3623;47.098;15.446;2023-07-31T09:28:06;22.40;99.90
7163;DHT22;3623;47.098;15.446;2023-07-31T09:30:45;22.50;99.90
7163;DHT22;3623;47.098;15.446;2023-07-31T09:33:13;22.50;99.90
7163;DHT22;3623;47.098;15.446;2023-07-31T09:35:41;22.70;99.90
7163;DHT22;3623;47.098;15.446;2023-07-31T09:38:10;22.70;99.90
7163;DHT22;3623;47.098;15.446;2023-07-31T09:40:38;22.70;99.90
7163;DHT22;3623;47.098;15.446;2023-07-31T09:43:09;22.80;99.90
7163;DHT22;3623;47.098;15.446;2023-07-31T09:45:38;23.00;99.90
7163;DHT22;3623;47.098;15.446;2023-07-31T09:48:07;22.90;99.90
7163;DHT22;3623;47.098;15.446;2023-07-31T09:50:38;23.20;99.90
7163;DHT22;3623;47.098;15.446;2023-07-31T09:53:06;23.50;99.90
7163;DHT22;3623;47.098;15.446;2023-07-31T09:55:34;23.50;99.90
7163;DHT22;3623;47.098;15.446;2023-07-31T09:58:04;23.40;99.90
7163;DHT22;3623;47.098;15.446;2023-07-31T10:00:33;23.30;99.90
7163;DHT22;3623;47.098;15.446;2023-07-31T10:03:02;23.30;99.90
7163;DHT22;3623;47.098;15.446;2023-07-31T10:05:34;23.20;99.90
7163;DHT22;3623;47.098;15.446;2023-07-31T10:08:02;23.30;99.90
7163;DHT22;3623;47.098;15.446;2023-07-31T10:10:30;23.10;99.90
7163;DHT22;3623;47.098;15.446;2023-07-31T10:12:59;23.30;99.90
7163;DHT22;3623;47.098;15.446;2023-07-31T10:15:27;23.50;99.90
7163;DHT22;3623;47.098;15.446;2023-07-31T10:17:57;23.80;99.90
7163;DHT22;3623;47.098;15.446;2023-07-31T10:20:26;24.10;99.90
7163;DHT22;3623;47.098;15.446;2023-07-31T10:22:55;24.40;99.90
7163;DHT22;3623;47.098;15.446;2023-07-31T10:25:22;24.70;99.90
7163;DHT22;3623;47.098;15.446;2023-07-31T10:27:50;24.90;99.90
7163;DHT22;3623;47.098;15.446;2023-07-31T10:30:22;25.40;99.90
7163;DHT22;3623;47.098;15.446;2023-07-31T10:32:50;25.00;99.90
7163;DHT22;3623;47.098;15.446;2023-07-31T10:35:20;25.80;99.90
7163;DHT22;3623;47.098;15.446;2023-07-31T10:37:48;26.60;99.90
7163;DHT22;3623;47.098;15.446;2023-07-31T10:40:18;27.00;99.90
7163;DHT22;3623;47.098;15.446;2023-07-31T10:42:47;27.40;99.90
7163;DHT22;3623;47.098;15.446;2023-07-31T10:45:24;27.90;99.90
7163;DHT22;3623;47.098;15.446;2023-07-31T10:47:58;28.90;99.90
7163;DHT22;3623;47.098;15.446;2023-07-31T10:50:29;29.80;99.90
7163;DHT22;3623;47.098;15.446;2023-07-31T10:52:59;30.20;99.90
7163;DHT22;3623;47.098;15.446;2023-07-31T10:55:28;30.70;99.90
7163;DHT22;3623;47.098;15.446;2023-07-31T10:57:57;30.60;99.90
7163;DHT22;3623;47.098;15.446;2023-07-31T11:00:27;30.60;99.90
7163;DHT22;3623;47.098;15.446;2023-07-31T11:02:58;30.90;99.90
7163;DHT22;3623;47.098;15.446;2023-07-31T11:05:44;31.10;99.90
7163;DHT22;3623;47.098;15.446;2023-07-31T11:08:16;31.30;99.90
7163;DHT22;3623;47.098;15.446;2023-07-31T11:10:44;31.10;99.90
7163;DHT22;3623;47.098;15.446;2023-07-31T11:13:12;30.70;99.90
7163;DHT22;3623;47.098;15.446;2023-07-31T11:15:39;30.00;99.90
7163;DHT22;3623;47.098;15.446;2023-07-31T11:18:07;29.70;99.90
7163;DHT22;3623;47.098;15.446;2023-07-31T11:20:37;29.00;99.90
7163;DHT22;3623;47.098;15.446;2023-07-31T11:23:08;28.60;99.90
7163;DHT22;3623;47.098;15.446;2023-07-31T11:25:36;28.20;99.90
7163;DHT22;3623;47.098;15.446;2023-07-31T11:28:07;27.40;99.90
7163;DHT22;3623;47.098;15.446;2023-07-31T11:30:34;26.80;99.90
7163;DHT22;3623;47.098;15.446;2023-07-31T11:33:02;26.20;99.90
7163;DHT22;3623;47.098;15.446;2023-07-31T11:35:31;26.10;99.90
7163;DHT22;3623;47.098;15.446;2023-07-31T11:37:58;26.10;99.90
7163;DHT22;3623;47.098;15.446;2023-07-31T11:40:28;26.50;99.90
7163;DHT22;3623;47.098;15.446;2023-07-31T11:42:58;26.70;99.90
7163;DHT22;3623;47.098;15.446;2023-07-31T11:45:26;26.70;99.90
7163;DHT22;3623;47.098;15.446;2023-07-31T11:47:55;26.70;99.90
7163;DHT22;3623;47.098;15.446;2023-07-31T11:50:23;26.40;99.90
7163;DHT22;3623;47.098;15.446;2023-07-31T11:52:54;26.20;99.90
7163;DHT22;3623;47.098;15.446;2023-07-31T11:55:24;26.00;99.90
7163;DHT22;3623;47.098;15.446;2023-07-31T11:57:56;26.00;99.90
7163;DHT22;3623;47.098;15.446;2023-07-31T12:00:24;26.00;99.90
7163;DHT22;3623;47.098;15.446;2023-07-31T12:02:51;26.40;99.90
7163;DHT22;3623;47.098;15.446;2023-07-31T12:05:19;26.70;99.90
7163;DHT22;3623;47.098;15.446;2023-07-31T12:07:47;27.00;99.90
7163;DHT22;3623;47.098;15.446;2023-07-31T12:10:28;27.70;99.90
7163;DHT22;3623;47.098;15.446;2023-07-31T12:13:00;27.40;99.90
7163;DHT22;3623;47.098;15.446;2023-07-31T12:15:33;27.00;99.90
7163;DHT22;3623;47.098;15.446;2023-07-31T12:18:04;26.60;99.90
7163;DHT22;3623;47.098;15.446;2023-07-31T12:20:32;26.30;99.90
7163;DHT22;3623;47.098;15.446;2023-07-31T12:22:59;26.10;99.90
7163;DHT22;3623;47.098;15.446;2023-07-31T12:25:33;26.70;99.90
7163;DHT22;3623;47.098;15.446;2023-07-31T12:28:07;27.40;99.90
7163;DHT22;3623;47.098;15.446;2023-07-31T12:30:38;27.10;99.90
7163;DHT22;3623;47.098;15.446;2023-07-31T12:33:07;26.70;99.90
7163;DHT22;3623;47.098;15.446;2023-07-31T12:35:41;26.70;99.90
7163;DHT22;3623;47.098;15.446;2023-07-31T12:38:08;28.30;99.90
7163;DHT22;3623;47.098;15.446;2023-07-31T12:40:37;29.50;99.90
7163;DHT22;3623;47.098;15.446;2023-07-31T12:43:06;29.00;99.90
7163;DHT22;3623;47.098;15.446;2023-07-31T12:45:34;28.10;99.90
7163;DHT22;3623;47.098;15.446;2023-07-31T12:48:01;26.90;99.90
7163;DHT22;3623;47.098;15.446;2023-07-31T12:50:29;26.30;99.90
7163;DHT22;3623;47.098;15.446;2023-07-31T12:52:56;25.70;99.90
7163;DHT22;3623;47.098;15.446;2023-07-31T12:55:24;25.60;99.90
7163;DHT22;3623;47.098;15.446;2023-07-31T12:57:51;25.40;99.90
7163;DHT22;3623;47.098;15.446;2023-07-31T13:00:19;25.20;99.90
7163;DHT22;3623;47.098;15.446;2023-07-31T13:02:47;24.80;99.90
7163;DHT22;3623;47.098;15.446;2023-07-31T13:05:14;24.60;99.90
7163;DHT22;3623;47.098;15.446;2023-07-31T13:07:41;24.50;99.90
7163;DHT22;3623;47.098;15.446;2023-07-31T13:10:09;24.60;99.90
7163;DHT22;3623;47.098;15.446;2023-07-31T13:12:36;24.70;99.90
7163;DHT22;3623;47.098;15.446;2023-07-31T13:15:04;24.80;99.90
7163;DHT22;3623;47.098;15.446;2023-07-31T13:17:32;25.40;99.90
7163;DHT22;3623;47.098;15.446;2023-07-31T13:20:00;25.70;99.90
7163;DHT22;3623;47.098;15.446;2023-07-31T13:22:27;25.50;99.90
7163;DHT22;3623;47.098;15.446;2023-07-31T13:24:54;25.30;99.90
7163;DHT22;3623;47.098;15.446;2023-07-31T13:27:21;24.90;99.90
7163;DHT22;3623;47.098;15.446;2023-07-31T13:29:50;24.80;99.90
7163;DHT22;3623;47.098;15.446;2023-07-31T13:32:18;24.70;99.90
7163;DHT22;3623;47.098;15.446;2023-07-31T13:34:48;24.80;99.90
7163;DHT22;3623;47.098;15.446;2023-07-31T13:37:15;24.80;99.90
7163;DHT22;3623;47.098;15.446;2023-07-31T13:39:42;24.60;99.90
7163;DHT22;3623;47.098;15.446;2023-07-31T13:42:10;24.50;99.90
7163;DHT22;3623;47.098;15.446;2023-07-31T13:44:38;24.50;99.90
7163;DHT22;3623;47.098;15.446;2023-07-31T13:47:05;24.60;99.90
7163;DHT22;3623;47.098;15.446;2023-07-31T13:49:33;24.50;99.90
7163;DHT22;3623;47.098;15.446;2023-07-31T13:52:02;24.90;99.90
7163;DHT22;3623;47.098;15.446;2023-07-31T13:54:29;26.00;99.90
7163;DHT22;3623;47.098;15.446;2023-07-31T13:56:56;28.00;99.90
7163;DHT22;3623;47.098;15.446;2023-07-31T13:59:24;29.80;99.90
7163;DHT22;3623;47.098;15.446;2023-07-31T14:01:51;31.00;99.90
7163;DHT22;3623;47.098;15.446;2023-07-31T14:04:18;31.80;99.90
7163;DHT22;3623;47.098;15.446;2023-07-31T14:06:45;31.70;99.90
7163;DHT22;3623;47.098;15.446;2023-07-31T14:09:15;30.50;99.90
7163;DHT22;3623;47.098;15.446;2023-07-31T14:11:43;29.50;99.90
7163;DHT22;3623;47.098;15.446;2023-07-31T14:14:10;28.50;99.90
7163;DHT22;3623;47.098;15.446;2023-07-31T14:16:38;27.60;99.90
7163;DHT22;3623;47.098;15.446;2023-07-31T14:19:05;27.20;99.90
7163;DHT22;3623;47.098;15.446;2023-07-31T14:21:33;26.90;99.90
7163;DHT22;3623;47.098;15.446;2023-07-31T14:24:00;26.60;99.90
7163;DHT22;3623;47.098;15.446;2023-07-31T14:26:28;26.60;99.90
7163;DHT22;3623;47.098;15.446;2023-07-31T14:28:55;27.00;99.90
7163;DHT22;3623;47.098;15.446;2023-07-31T14:31:23;27.60;99.90
7163;DHT22;3623;47.098;15.446;2023-07-31T14:33:50;27.80;99.90
7163;DHT22;3623;47.098;15.446;2023-07-31T14:36:17;27.40;99.90
7163;DHT22;3623;47.098;15.446;2023-07-31T14:38:44;27.50;99.90
7163;DHT22;3623;47.098;15.446;2023-07-31T14:41:11;27.30;99.90
7163;DHT22;3623;47.098;15.446;2023-07-31T14:43:40;27.00;99.90
7163;DHT22;3623;47.098;15.446;2023-07-31T14:46:07;26.40;99.90
7163;DHT22;3623;47.098;15.446;2023-07-31T14:48:34;26.20;99.90
7163;DHT22;3623;47.098;15.446;2023-07-31T14:51:01;25.90;99.90
7163;DHT22;3623;47.098;15.446;2023-07-31T14:53:28;25.60;99.90
7163;DHT22;3623;47.098;15.446;2023-07-31T14:55:56;25.40;99.90
7163;DHT22;3623;47.098;15.446;2023-07-31T14:58:23;25.30;99.90
7163;DHT22;3623;47.098;15.446;2023-07-31T15:00:51;25.20;99.90
7163;DHT22;3623;47.098;15.446;2023-07-31T15:03:19;25.20;99.90
7163;DHT22;3623;47.098;15.446;2023-07-31T15:05:46;25.30;99.90
7163;DHT22;3623;47.098;15.446;2023-07-31T15:08:13;25.20;99.90
7163;DHT22;3623;47.098;15.446;2023-07-31T15:10:40;25.10;99.90
7163;DHT22;3623;47.098;15.446;2023-07-31T15:13:07;25.00;99.90
7163;DHT22;3623;47.098;15.446;2023-07-31T15:15:34;24.90;99.90
7163;DHT22;3623;47.098;15.446;2023-07-31T15:18:03;24.90;99.90
7163;DHT22;3623;47.098;15.446;2023-07-31T15:20:30;25.00;99.90
7163;DHT22;3623;47.098;15.446;2023-07-31T15:22:58;25.00;99.90
7163;DHT22;3623;47.098;15.446;2023-07-31T15:25:25;25.30;99.90
7163;DHT22;3623;47.098;15.446;2023-07-31T15:27:52;25.90;99.90
7163;DHT22;3623;47.098;15.446;2023-07-31T15:30:19;26.50;99.90
7163;DHT22;3623;47.098;15.446;2023-07-31T15:32:46;26.50;99.90
7163;DHT22;3623;47.098;15.446;2023-07-31T15:35:17;26.80;99.90
7163;DHT22;3623;47.098;15.446;2023-07-31T15:37:44;26.60;99.90
7163;DHT22;3623;47.098;15.446;2023-07-31T15:40:11;26.70;99.90
7163;DHT22;3623;47.098;15.446;2023-07-31T15:42:38;26.60;99.90
7163;DHT22;3623;47.098;15.446;2023-07-31T15:45:08;26.30;99.90
7163;DHT22;3623;47.098;15.446;2023-07-31T15:47:36;26.30;99.90
7163;DHT22;3623;47.098;15.446;2023-07-31T15:50:03;26.30;99.90